Etusivu
METAR-TAF:

METAR-TAF

Lentoasemat :

Luxemburg, Luxemburg

Findelin kansainvälinen lentoasema

Leveyspiiri: 49-37N, Pituuspiiri: 006-13E, korkeus merenpinnasta: 376 m

Tämänhetkinen sää

Tämä raportti tehtiin 31 minuuttia sitten, kello 20.50 UTC
Tuuli 1 kn eri suunnista
Lämpötila 18°C
Kosteus 59%
Ilmanpaine 1017 hPa
Näkyvyys 10 km tai enemmän
ei pilviä alle 1500 m:ssä eikä cumulonimbus-pilviä

METAR: ELLX 222050Z VRB01KT CAVOK 18/10 Q1017 NOSIG

Aika: 23:21 (21:21 UTC)

Sääennuste

Tämä raportti tehtiin 4 tuntia ja 21 minuuttia sitten, kello 17.00 UTC
Ennuste voimassa 22. päivästä klo 18 UTC - 23. päivään klo 24 UTC
Tuuli 5 kn etelästä/kaakosta
Näkyvyys 10 km tai enemmän
ei pilviä alle 1500 m:ssä eikä cumulonimbus-pilviä
Tulossa
23. päivästä klo 12 UTC - 23. päivään klo 15 UTC
Tuuli 11 kn lännestä/luoteesta

TAF: ELLX 221700Z 2218/2324 15005KT CAVOK BECMG 2312/2315 30011KT

Säähavainnot ja -ennusteet yli 4000 lentoasemalta (METAR- ja TAF-raportit).

Käytössä olevat sääasemat on merkitty karttaan keltaisilla ja punaisilla pisteillä.

Aseta hiiri pisteen päälle nähdäksesi sääaseman nimen.

Klikkaa sitten nähdäksesi säähavainnot ja -ennusteet.

Kartan vaihtaminen: klikkaa mustalla rastilla varustettuja vihreitä pisteitä, niin voit zoomata sisään; viivalla varustettua vihreää pistettä, niin voit zoomata ulos tai vihreitä nuolia, niin pääset viereisille kartoille.


METAR-TAF: